createdAt,value
2014-08-07T06:16:39.812Z,48
2014-08-07T06:24:40.421Z,48
2014-08-07T06:31:40.967Z,48
2014-08-07T06:38:41.527Z,49
2014-08-07T06:45:42.072Z,49
2014-08-07T06:53:42.681Z,49
2014-08-07T07:00:43.225Z,49
2014-08-07T07:10:43.931Z,49
2014-08-07T07:18:44.524Z,50
2014-08-07T07:26:45.119Z,50
2014-08-07T07:33:45.679Z,50
2014-08-07T07:41:46.288Z,50
2014-08-07T07:49:46.881Z,50
2014-08-07T07:57:47.491Z,50
2014-08-07T08:06:48.148Z,49
2014-08-07T08:15:48.806Z,49
2014-08-07T08:23:49.415Z,49
2014-08-07T08:32:50.074Z,49
2014-08-07T08:41:50.730Z,49
2014-08-07T08:48:51.277Z,49
2014-08-07T08:56:51.885Z,49
2014-08-07T09:05:52.545Z,49
2014-08-07T09:14:53.201Z,49
2014-08-07T09:20:53.698Z,49
2014-08-07T09:27:54.257Z,49
2014-08-07T09:35:54.852Z,49
2014-08-07T09:43:55.460Z,49
2014-08-07T09:51:56.069Z,49
2014-08-07T09:58:56.613Z,49
2014-08-07T10:08:57.321Z,49
2014-08-07T10:17:57.978Z,50
2014-08-07T10:26:58.637Z,50
2014-08-07T10:34:59.245Z,50
2014-08-07T10:42:59.840Z,50
2014-08-07T10:51:00.447Z,51
2014-08-07T11:00:01.106Z,51
2014-08-07T11:07:01.652Z,51
2014-08-07T11:13:02.146Z,51
2014-08-07T11:21:02.756Z,51
2014-08-07T11:31:03.463Z,51
2014-08-07T11:38:04.023Z,51
2014-08-07T11:47:04.680Z,51
2014-08-07T11:56:05.354Z,51
2014-08-07T12:04:05.962Z,51
2014-08-07T12:13:06.622Z,52
2014-08-07T12:21:07.231Z,52
2014-08-07T12:30:07.888Z,51
2014-08-07T12:37:08.434Z,52
2014-08-07T12:46:09.090Z,51
2014-08-07T12:54:09.701Z,51
2014-08-07T13:03:10.357Z,51
2014-08-07T13:10:10.919Z,51
2014-08-07T13:17:11.478Z,51
2014-08-07T13:24:12.023Z,51
2014-08-07T13:30:12.535Z,51
2014-08-07T13:38:13.128Z,51
2014-08-07T13:46:13.737Z,51
2014-08-07T13:53:14.445Z,52
2014-08-07T14:03:15.220Z,52
2014-08-07T14:13:15.934Z,53
2014-08-07T14:21:16.546Z,54
2014-08-07T14:30:17.203Z,53
2014-08-07T14:40:17.910Z,53
2014-08-07T14:48:18.519Z,52
2014-08-07T14:56:19.127Z,52
2014-08-07T15:04:19.737Z,52
2014-08-07T15:11:20.297Z,52
2014-08-07T15:19:20.890Z,51
2014-08-07T15:26:21.451Z,51
2014-08-07T15:33:22.012Z,51
2014-08-07T15:43:22.718Z,51
2014-08-07T15:51:23.327Z,52
2014-08-07T15:59:51.219Z,52
2014-08-07T16:06:51.779Z,52
2014-08-07T16:15:52.438Z,52
2014-08-07T16:21:52.950Z,52
2014-08-07T16:28:53.510Z,52
2014-08-07T16:36:54.103Z,52
2014-08-07T16:43:54.662Z,52
2014-08-07T16:51:55.272Z,52
2014-08-07T17:00:55.930Z,52
2014-08-07T17:09:56.589Z,53
2014-08-07T17:17:57.197Z,54
2014-08-07T17:25:57.806Z,54
2014-08-07T17:32:58.367Z,55
2014-08-07T17:40:58.959Z,55
2014-08-07T17:47:59.521Z,55
2014-08-07T17:57:00.179Z,56
2014-08-07T18:07:00.884Z,56
2014-08-07T18:16:01.543Z,56
2014-08-07T18:25:02.200Z,56
2014-08-07T19:23:10.187Z,56
2014-08-07T19:30:10.748Z,56
2014-08-07T19:40:11.455Z,56
2014-08-07T19:49:12.112Z,56
2014-08-07T19:56:12.673Z,56
2014-08-07T20:03:13.232Z,56
2014-08-07T20:12:13.891Z,56
2014-08-07T20:20:14.499Z,56
2014-08-07T20:28:15.110Z,56
